Time;durP1;ratioP1;P1;durP2;ratioP2;P2;SDS_P1;SDS_P2;PMS_P1;PMS_P2;Temp;Humidity;BMP_temperature;BMP_pressure;BME280_temperature;BME280_humidity;BME280_pressure;Samples;Min_cycle;Max_cycle;Signal;HPM_P1;HPM_P2
2022/09/29 00:00:13;;;;;;;5.13;3.20;;;;;;;12.56;80.68;99138.95;1507207;86;21589;-78
2022/09/29 00:02:39;;;;;;;5.23;3.10;;;;;;;12.55;81.01;99137.83;1504937;86;21433;-78
2022/09/29 00:05:07;;;;;;;8.20;3.30;;;;;;;12.56;81.28;99136.30;1520432;86;21515;-79
2022/09/29 00:07:33;;;;;;;8.13;4.20;;;;;;;12.58;81.29;99134.27;1512518;86;21553;-79
2022/09/29 00:09:59;;;;;;;6.70;3.80;;;;;;;12.61;81.41;99133.89;1510422;86;22331;-79
2022/09/29 00:12:26;;;;;;;8.43;4.43;;;;;;;12.64;81.47;99126.87;1503089;86;21368;-78
2022/09/29 00:14:52;;;;;;;6.53;3.50;;;;;;;12.67;81.40;99123.52;1504704;86;21493;-79
2022/09/29 00:17:18;;;;;;;6.63;3.17;;;;;;;12.67;81.39;99126.17;1517909;86;21396;-79
2022/09/29 00:19:44;;;;;;;6.60;3.07;;;;;;;12.62;81.35;99120.92;1510704;86;21500;-79
2022/09/29 00:22:10;;;;;;;7.80;3.43;;;;;;;12.62;81.58;99120.92;1511842;86;21409;-79
2022/09/29 00:24:36;;;;;;;5.60;2.70;;;;;;;12.64;81.99;99125.54;1515084;86;22571;-79
2022/09/29 00:27:02;;;;;;;8.57;3.37;;;;;;;12.65;82.09;99121.86;1518340;84;21384;-79
2022/09/29 00:29:28;;;;;;;4.37;3.03;;;;;;;12.65;82.24;99120.53;1515058;86;21255;-79
2022/09/29 00:31:54;;;;;;;5.63;3.90;;;;;;;12.65;82.32;99116.55;1512126;86;21349;-79
2022/09/29 00:34:20;;;;;;;7.57;3.10;;;;;;;12.67;82.08;99121.69;1507893;86;21375;-78
2022/09/29 00:36:46;;;;;;;5.07;3.50;;;;;;;12.65;82.17;99117.87;1510348;86;21249;-79
2022/09/29 00:39:12;;;;;;;6.40;3.10;;;;;;;12.64;82.00;99110.13;1506131;86;21504;-79
2022/09/29 00:41:40;;;;;;;9.40;3.90;;;;;;;12.60;82.30;99114.16;1507935;86;21378;-78
2022/09/29 00:44:18;;;;;;;6.60;3.13;;;;;;;12.56;82.91;99113.73;1482839;86;21337;-78
2022/09/29 00:46:55;;;;;;;4.87;3.40;;;;;;;12.55;83.19;99105.47;1501720;86;21395;-78
2022/09/29 00:49:39;;;;;;;5.57;2.80;;;;;;;12.57;83.66;99100.80;1508899;86;21359;-78
2022/09/29 00:52:29;;;;;;;6.07;3.10;;;;;;;12.59;83.61;99088.64;1490798;86;21425;-78
2022/09/29 00:55:09;;;;;;;5.50;3.67;;;;;;;12.59;83.20;99086.80;1494888;86;21547;-78
2022/09/29 00:57:41;;;;;;;4.85;2.90;;;;;;;12.55;83.03;99084.23;1485088;87;22650;-77
2022/09/29 01:00:12;;;;;;;11.07;2.80;;;;;;;12.58;82.91;99085.69;1483039;87;21256;-78
2022/09/29 01:02:46;;;;;;;8.20;3.17;;;;;;;12.55;83.00;99084.23;1484831;87;21477;-78
2022/09/29 01:05:20;;;;;;;4.57;2.67;;;;;;;12.53;83.54;99086.77;1477768;87;21954;-79
2022/09/29 01:07:46;;;;;;;4.13;3.00;;;;;;;12.49;83.84;99091.64;1487087;87;21656;-79
2022/09/29 01:10:16;;;;;;;6.13;3.17;;;;;;;12.50;83.93;99081.33;1480199;87;21502;-79
2022/09/29 01:12:45;;;;;;;9.40;3.50;;;;;;;12.49;83.92;99093.48;1486818;87;21330;-79
2022/09/29 01:15:15;;;;;;;4.83;2.80;;;;;;;12.50;83.66;99094.60;1490808;86;21376;-78
2022/09/29 01:17:41;;;;;;;7.67;3.40;;;;;;;12.50;83.64;99095.93;1520830;86;22092;-79
2022/09/29 01:20:17;;;;;;;9.23;3.60;;;;;;;12.48;83.51;99095.30;1484555;87;21431;-79
2022/09/29 01:22:58;;;;;;;4.17;2.60;;;;;;;12.48;83.79;99097.95;1484683;87;21426;-80
2022/09/29 01:25:48;;;;;;;4.72;2.60;;;;;;;12.49;84.16;99090.31;1486630;87;22348;-79
2022/09/29 01:28:44;;;;;;;4.10;2.85;;;;;;;12.49;84.27;99077.56;1482449;86;21439;-79
2022/09/29 01:31:35;;;;;;;4.63;2.50;;;;;;;12.48;84.12;99072.73;1507352;86;21826;-79
2022/09/29 01:34:22;;;;;;;3.40;2.27;;;;;;;12.47;83.90;99070.30;1491995;86;21448;-79
2022/09/29 01:36:54;;;;;;;7.47;2.47;;;;;;;12.44;83.66;99062.72;1486956;87;21449;-79
2022/09/29 01:39:37;;;;;;;8.57;2.70;;;;;;;12.39;83.48;99053.48;1477588;87;21384;-79
2022/09/29 01:42:24;;;;;;;6.50;3.13;;;;;;;12.34;83.67;99056.40;1466919;87;21419;-79
2022/09/29 01:44:55;;;;;;;6.90;2.90;;;;;;;12.30;84.12;99055.16;1487071;87;22059;-78
2022/09/29 01:47:35;;;;;;;7.30;2.90;;;;;;;12.25;84.25;99060.20;1473533;87;21541;-79
2022/09/29 01:50:09;;;;;;;6.97;2.60;;;;;;;12.24;84.73;99062.56;1488908;86;22261;-79
2022/09/29 01:52:43;;;;;;;4.37;2.00;;;;;;;12.22;84.97;99059.27;1433412;89;22300;-79
2022/09/29 01:55:14;;;;;;;3.97;3.00;;;;;;;12.20;84.48;99059.48;1447385;87;21417;-77
2022/09/29 01:57:58;;;;;;;3.45;2.72;;;;;;;12.17;84.25;99055.88;1468441;87;22262;-78
2022/09/29 02:00:30;;;;;;;4.73;2.60;;;;;;;12.13;85.53;99055.93;1488865;87;21472;-78
2022/09/29 02:03:07;;;;;;;5.40;3.03;;;;;;;12.05;84.74;99059.53;1493637;87;21454;-78
2022/09/29 02:05:54;;;;;;;4.97;3.13;;;;;;;12.00;84.86;99051.34;1510747;86;22305;-78
2022/09/29 02:08:37;;;;;;;3.40;2.53;;;;;;;11.96;85.38;99040.28;1511335;86;21544;-77
2022/09/29 02:11:07;;;;;;;8.87;2.93;;;;;;;11.92;85.26;99041.68;1504705;86;21516;-78
2022/09/29 02:13:39;;;;;;;6.33;2.70;;;;;;;11.90;85.14;99037.58;1509937;86;21338;-78
2022/09/29 02:16:13;;;;;;;6.23;3.30;;;;;;;11.90;85.14;99037.58;1511190;86;23081;-78
2022/09/29 02:18:56;;;;;;;6.20;2.80;;;;;;;11.88;85.22;99038.27;1478064;87;21590;-77
2022/09/29 02:21:23;;;;;;;3.43;2.70;;;;;;;11.86;86.55;99033.67;1482274;87;21472;-77
2022/09/29 02:23:51;;;;;;;4.37;2.37;;;;;;;11.82;85.84;99038.48;1486431;87;21435;-77
2022/09/29 02:26:19;;;;;;;4.33;2.73;;;;;;;11.79;86.09;99039.37;1485400;87;21879;-77
2022/09/29 02:28:45;;;;;;;14.60;2.60;;;;;;;11.74;86.02;99034.14;1478430;87;21494;-78
2022/09/29 02:31:11;;;;;;;4.03;2.37;;;;;;;11.72;86.19;99036.16;1493572;87;22308;-77
2022/09/29 02:33:37;;;;;;;2.90;2.40;;;;;;;11.70;86.55;99022.27;1491621;87;21354;-77
2022/09/29 02:36:15;;;;;;;7.67;3.00;;;;;;;11.69;86.49;99023.28;1507628;86;21575;-77
2022/09/29 02:38:59;;;;;;;5.57;2.70;;;;;;;11.67;86.22;99023.97;1507142;86;21375;-77
2022/09/29 02:41:57;;;;;;;3.67;2.53;;;;;;;11.65;86.80;99022.51;1511977;86;21375;-77
2022/09/29 02:44:54;;;;;;;5.10;2.73;;;;;;;11.60;86.26;99023.61;1513426;86;21662;-77
2022/09/29 02:48:01;;;;;;;4.40;2.43;;;;;;;11.57;86.74;99019.50;1506748;86;21427;-76
2022/09/29 02:51:14;;;;;;;6.37;2.97;;;;;;;11.56;86.69;99020.48;1499787;86;22255;-77
2022/09/29 02:54:18;;;;;;;3.67;2.77;;;;;;;11.58;86.64;99018.48;1516553;86;21564;-76
2022/09/29 02:57:17;;;;;;;6.70;3.30;;;;;;;11.60;86.70;99015.14;1502223;86;21552;-77
2022/09/29 02:59:57;;;;;;;4.30;3.10;;;;;;;11.61;86.92;99009.33;1514804;86;21317;-76
2022/09/29 03:02:26;;;;;;;5.15;3.10;;;;;;;11.59;86.68;99004.21;1507406;86;21348;-77
2022/09/29 03:04:53;;;;;;;5.90;3.57;;;;;;;11.58;87.00;99005.23;1518390;86;21298;-78
2022/09/29 03:07:20;;;;;;;4.70;3.43;;;;;;;11.57;86.89;99005.44;1511580;85;22302;-77
2022/09/29 03:09:47;;;;;;;6.37;3.50;;;;;;;11.57;87.56;99007.58;1515352;85;22310;-77
2022/09/29 03:12:13;;;;;;;8.00;3.10;;;;;;;11.57;87.70;99000.95;1509688;86;21679;-77
2022/09/29 03:14:39;;;;;;;4.87;3.23;;;;;;;11.58;87.62;99001.25;1525418;86;21444;-77
2022/09/29 03:17:05;;;;;;;5.70;3.97;;;;;;;11.57;87.66;99005.44;1508963;86;21377;-78
2022/09/29 03:19:31;;;;;;;10.33;6.27;;;;;;;11.58;87.42;99005.23;1512374;86;22352;-77
2022/09/29 03:21:57;;;;;;;13.07;7.63;;;;;;;11.59;87.25;99017.45;1514636;86;22349;-78
2022/09/29 03:24:23;;;;;;;17.33;8.70;;;;;;;11.59;86.98;99021.44;1521001;85;21378;-79
2022/09/29 03:26:49;;;;;;;16.73;9.10;;;;;;;11.56;87.09;99027.63;1514508;84;21425;-78
2022/09/29 03:29:15;;;;;;;17.80;7.57;;;;;;;11.55;87.15;99033.43;1503009;86;22394;-78
2022/09/29 03:31:41;;;;;;;10.43;6.27;;;;;;;11.48;88.22;99029.91;1507301;86;21367;-77
2022/09/29 03:34:07;;;;;;;13.10;6.97;;;;;;;11.40;89.44;99022.88;1523181;86;21440;-77
2022/09/29 03:36:33;;;;;;;9.07;5.83;;;;;;;11.35;89.99;99024.45;1506119;86;21330;-78
2022/09/29 03:38:59;;;;;;;12.03;5.43;;;;;;;11.26;90.49;99021.91;1506119;84;21297;-77
2022/09/29 03:41:25;;;;;;;4.93;3.67;;;;;;;11.20;90.54;99016.03;1507573;86;22280;-77
2022/09/29 03:43:51;;;;;;;9.30;4.47;;;;;;;11.15;89.73;99002.52;1511510;86;22099;-77
2022/09/29 03:46:17;;;;;;;5.87;3.60;;;;;;;11.11;90.92;98997.30;1499735;86;21344;-77
2022/09/29 03:48:44;;;;;;;9.20;2.73;;;;;;;11.03;91.30;98996.89;1517217;84;21261;-77
2022/09/29 03:51:10;;;;;;;3.83;2.87;;;;;;;10.97;91.27;98996.81;1539162;84;22297;-78
2022/09/29 03:53:36;;;;;;;5.10;3.47;;;;;;;10.93;91.31;99001.63;1507088;84;21344;-76
2022/09/29 03:56:03;;;;;;;4.37;3.17;;;;;;;10.90;91.40;98998.55;1520053;85;21385;-77
2022/09/29 03:58:29;;;;;;;4.70;3.10;;;;;;;10.86;91.72;98995.45;1488690;87;22321;-77
2022/09/29 04:00:55;;;;;;;11.47;3.23;;;;;;;10.81;91.12;98998.64;1483407;87;21222;-77
2022/09/29 04:03:22;;;;;;;8.20;3.40;;;;;;;10.74;91.72;98999.07;1494710;87;21353;-77
2022/09/29 04:05:48;;;;;;;4.73;3.43;;;;;;;10.67;91.86;98991.53;1495542;87;22298;-77
2022/09/29 04:08:15;;;;;;;11.07;3.10;;;;;;;10.62;92.49;98987.31;1482453;87;21441;-78
2022/09/29 04:10:41;;;;;;;6.80;3.20;;;;;;;10.59;93.86;98996.94;1491833;87;21234;-78
2022/09/29 04:13:08;;;;;;;6.03;3.50;;;;;;;10.57;94.64;98999.75;1485988;87;21263;-77
2022/09/29 04:15:35;;;;;;;5.97;3.30;;;;;;;10.57;94.98;98995.78;1490896;87;21292;-78
2022/09/29 04:18:01;;;;;;;6.43;3.47;;;;;;;10.62;95.49;98997.89;1486910;87;21383;-78
2022/09/29 04:20:27;;;;;;;11.27;3.67;;;;;;;10.69;94.64;98996.66;1489164;87;21378;-78
2022/09/29 04:22:53;;;;;;;4.93;3.30;;;;;;;10.71;95.16;99003.41;1461983;87;21383;-78
2022/09/29 04:25:19;;;;;;;8.43;3.93;;;;;;;10.72;95.11;99002.39;1489213;87;21331;-77
2022/09/29 04:27:45;;;;;;;15.00;4.30;;;;;;;10.74;94.64;99007.01;1482856;87;22322;-77
2022/09/29 04:30:12;;;;;;;6.53;3.40;;;;;;;10.77;94.40;99015.09;1481538;87;21368;-78
2022/09/29 04:32:38;;;;;;;5.10;3.07;;;;;;;10.81;93.95;99012.38;1478932;87;21449;-77
2022/09/29 04:35:05;;;;;;;3.97;3.27;;;;;;;10.86;94.11;99007.36;1481693;87;22423;-76
2022/09/29 04:37:31;;;;;;;7.47;3.23;;;;;;;10.91;94.38;99012.93;1495656;87;21521;-75
2022/09/29 04:39:57;;;;;;;9.40;3.00;;;;;;;10.97;94.38;99010.05;1487306;87;21603;-77
2022/09/29 04:42:23;;;;;;;5.00;3.20;;;;;;;11.02;94.17;99016.95;1469188;87;21396;-77
2022/09/29 04:44:49;;;;;;;8.57;3.63;;;;;;;11.06;93.92;99019.53;1483437;87;21382;-78
2022/09/29 04:47:16;;;;;;;6.67;4.13;;;;;;;11.11;93.60;99021.63;1467252;87;22329;-77
2022/09/29 04:49:42;;;;;;;11.47;5.17;;;;;;;11.15;93.60;99018.41;1462230;87;21360;-77
2022/09/29 04:52:12;;;;;;;9.80;3.83;;;;;;;11.20;93.21;99019.19;1522541;84;21285;-79
2022/09/29 04:54:38;;;;;;;8.73;4.10;;;;;;;11.26;93.09;99026.39;1505628;84;21532;-77
2022/09/29 04:57:05;;;;;;;4.87;2.97;;;;;;;11.31;93.04;99026.66;1507660;86;21432;-77
2022/09/29 04:59:32;;;;;;;6.90;3.50;;;;;;;11.40;93.01;99030.83;1509782;86;21296;-77
2022/09/29 05:01:58;;;;;;;5.80;4.10;;;;;;;11.46;92.88;99030.59;1501347;86;21371;-78
2022/09/29 05:04:24;;;;;;;6.53;3.13;;;;;;;11.53;92.85;99031.47;1504484;84;21418;-78
2022/09/29 05:06:51;;;;;;;7.73;4.30;;;;;;;11.59;92.41;99027.24;1511998;86;21425;-78
2022/09/29 05:09:16;;;;;;;9.90;3.70;;;;;;;11.64;92.39;99017.72;1515970;86;21411;-75
2022/09/29 05:11:42;;;;;;;7.60;3.80;;;;;;;11.67;92.50;99019.17;1514995;84;21329;-76
2022/09/29 05:14:10;;;;;;;9.13;3.70;;;;;;;11.69;92.70;99027.26;1513136;86;21314;-78
2022/09/29 05:16:36;;;;;;;10.40;4.30;;;;;;;11.75;92.66;99018.55;1505800;84;22334;-78
2022/09/29 05:19:02;;;;;;;5.93;3.20;;;;;;;11.80;93.14;99013.20;1513607;84;21410;-78
2022/09/29 05:21:28;;;;;;;10.23;3.80;;;;;;;11.85;92.72;99011.63;1523954;84;21396;-78
2022/09/29 05:23:56;;;;;;;12.57;4.30;;;;;;;11.91;92.92;99004.73;1509377;86;21396;-79
2022/09/29 05:26:22;;;;;;;14.17;3.33;;;;;;;11.94;92.72;99005.71;1514576;86;22048;-78
2022/09/29 05:28:49;;;;;;;7.83;3.90;;;;;;;11.95;92.89;99006.83;1510797;86;21307;-78
2022/09/29 05:31:15;;;;;;;9.67;3.90;;;;;;;11.97;93.03;99001.35;1506931;86;21343;-77
2022/09/29 05:33:41;;;;;;;13.23;4.07;;;;;;;12.03;92.82;99008.53;1507011;86;21366;-78
2022/09/29 05:36:10;;;;;;;8.53;3.93;;;;;;;12.12;92.82;99004.73;1489930;86;21293;-78
2022/09/29 05:38:37;;;;;;;6.60;3.40;;;;;;;12.20;93.03;99003.77;1517157;86;22527;-78
2022/09/29 05:41:12;;;;;;;5.80;3.40;;;;;;;12.30;92.85;99000.77;1514729;86;21514;-77
2022/09/29 05:43:39;;;;;;;9.47;3.73;;;;;;;12.35;92.71;99005.81;1506003;86;21491;-78
2022/09/29 05:46:09;;;;;;;6.80;3.83;;;;;;;12.42;92.34;99007.17;1513818;86;21359;-79
2022/09/29 05:48:35;;;;;;;10.05;3.52;;;;;;;12.47;92.16;99003.44;1506908;86;21323;-79
2022/09/29 05:51:09;;;;;;;10.73;3.40;;;;;;;12.53;92.00;99001.33;1511071;86;21338;-78
2022/09/29 05:53:36;;;;;;;16.43;3.23;;;;;;;12.59;92.09;99008.51;1515651;84;21410;-78
2022/09/29 05:56:12;;;;;;;9.50;3.70;;;;;;;12.63;92.19;99012.94;1534311;84;21314;-78
2022/09/29 05:58:39;;;;;;;11.20;3.50;;;;;;;12.69;92.09;99020.60;1530152;84;21307;-78
2022/09/29 06:01:11;;;;;;;6.53;3.63;;;;;;;12.73;92.03;99008.59;1537884;84;21307;-77
2022/09/29 06:03:38;;;;;;;5.60;4.27;;;;;;;12.76;91.78;99013.00;1522760;84;21314;-76
2022/09/29 06:06:12;;;;;;;11.60;4.67;;;;;;;12.80;91.66;99020.06;1539358;84;21417;-78
2022/09/29 06:08:39;;;;;;;10.03;4.13;;;;;;;12.86;91.40;99020.63;1527198;84;22393;-77
2022/09/29 06:11:10;;;;;;;12.37;3.93;;;;;;;12.88;91.20;99019.38;1526858;84;21365;-77
2022/09/29 06:13:41;;;;;;;10.00;3.87;;;;;;;12.93;91.42;99020.13;1532062;84;21461;-77
2022/09/29 06:16:09;;;;;;;5.57;2.97;;;;;;;12.95;91.23;99022.09;1530669;84;21491;-77
2022/09/29 06:18:36;;;;;;;8.20;3.60;;;;;;;12.99;91.12;99028.64;1529263;84;21299;-78
2022/09/29 06:21:09;;;;;;;8.27;3.20;;;;;;;13.03;90.84;99017.95;1533280;84;22371;-77
2022/09/29 06:23:37;;;;;;;9.80;3.63;;;;;;;13.05;90.64;99011.91;1530001;84;21424;-77
2022/09/29 06:26:07;;;;;;;7.30;4.53;;;;;;;13.07;90.56;99017.85;1539889;84;21366;-76
2022/09/29 06:28:34;;;;;;;7.92;3.90;;;;;;;13.05;90.39;99021.20;1523842;84;22320;-80
2022/09/29 06:31:16;;;;;;;5.33;3.67;;;;;;;13.01;90.60;99030.59;1527113;84;21365;-84
2022/09/29 06:33:43;;;;;;;8.40;4.47;;;;;;;12.98;90.83;99025.69;1529420;84;22342;-84
2022/09/29 06:39:13;;;;;;;9.77;5.00;;;;;;;12.97;91.29;99021.37;1531203;84;21514;-84
2022/09/29 06:41:40;;;;;;;9.20;4.30;;;;;;;13.07;91.28;99029.80;1533040;84;21543;-79
2022/09/29 06:44:06;;;;;;;7.77;3.40;;;;;;;13.17;91.10;99020.64;1528532;84;21387;-78
2022/09/29 06:46:32;;;;;;;5.80;3.50;;;;;;;13.21;90.79;99026.70;1534673;84;21417;-78
2022/09/29 06:48:59;;;;;;;6.13;3.93;;;;;;;13.22;90.76;99036.30;1527907;84;21314;-79
2022/09/29 06:51:25;;;;;;;7.83;4.33;;;;;;;13.20;90.42;99040.98;1535491;84;21335;-79
2022/09/29 06:53:52;;;;;;;5.53;4.03;;;;;;;13.15;92.54;99042.59;1530642;84;21299;-80
2022/09/29 06:56:19;;;;;;;11.20;4.47;;;;;;;13.18;91.67;99052.84;1529642;84;22252;-80
2022/09/29 06:58:46;;;;;;;6.13;4.13;;;;;;;13.17;91.58;99054.66;1520373;84;21874;-78
2022/09/29 07:01:13;;;;;;;16.47;4.53;;;;;;;13.17;91.96;99052.00;1525722;84;21357;-80
2022/09/29 07:03:39;;;;;;;14.57;3.40;;;;;;;13.15;93.09;99062.52;1522552;84;21409;-79
2022/09/29 07:06:07;;;;;;;12.27;4.13;;;;;;;13.10;94.59;99063.94;1514826;84;21454;-79
2022/09/29 07:08:35;;;;;;;3.97;3.47;;;;;;;13.14;94.94;99091.44;1436795;85;21306;-78
2022/09/29 07:11:02;;;;;;;6.10;3.20;;;;;;;13.13;94.61;99099.91;1416721;87;22003;-78
2022/09/29 07:13:29;;;;;;;4.00;3.20;;;;;;;13.16;92.99;99094.72;1440578;84;21315;-80
2022/09/29 07:15:55;;;;;;;9.97;4.07;;;;;;;13.16;93.62;99089.41;1448207;84;21292;-78
2022/09/29 07:18:21;;;;;;;10.47;3.50;;;;;;;13.14;93.43;99092.25;1440405;84;21367;-77
2022/09/29 07:20:47;;;;;;;6.90;4.33;;;;;;;13.06;94.38;99093.73;1438382;87;21307;-76
2022/09/29 07:23:13;;;;;;;9.33;3.97;;;;;;;13.06;93.28;99083.95;1439379;84;21218;-77
2022/09/29 07:25:39;;;;;;;8.13;4.00;;;;;;;12.99;95.18;99083.08;1437974;86;21242;-77
2022/09/29 07:28:06;;;;;;;10.83;4.13;;;;;;;12.96;95.24;99084.80;1454841;84;21388;-78
2022/09/29 07:30:31;;;;;;;7.37;4.57;;;;;;;12.97;94.02;99086.43;1549638;84;21380;-76
2022/09/29 07:32:57;;;;;;;8.20;4.07;;;;;;;12.94;94.66;99082.03;1525822;84;21373;-76
2022/09/29 07:35:24;;;;;;;10.33;4.23;;;;;;;12.90;94.92;99078.95;1522831;84;21373;-76
2022/09/29 07:37:52;;;;;;;5.97;4.27;;;;;;;12.90;94.90;99067.00;1524060;84;21559;-74
2022/09/29 07:40:21;;;;;;;5.03;3.97;;;;;;;12.93;95.03;99075.90;1441143;84;22290;-76
2022/09/29 07:42:48;;;;;;;9.23;5.10;;;;;;;12.88;97.54;99079.64;1612610;84;21380;-75
2022/09/29 07:45:16;;;;;;;8.97;4.40;;;;;;;12.84;97.15;99074.42;1532764;84;21425;-79
2022/09/29 07:47:42;;;;;;;10.40;5.73;;;;;;;12.88;96.64;99082.30;1523674;84;22667;-79
2022/09/29 07:50:09;;;;;;;7.27;4.90;;;;;;;12.90;97.32;99073.64;1525903;84;21424;-79
2022/09/29 07:52:35;;;;;;;10.67;4.37;;;;;;;12.93;98.68;99061.30;1532715;84;22400;-77
2022/09/29 07:55:03;;;;;;;7.97;4.77;;;;;;;12.93;99.45;99055.98;1542827;84;21534;-78
2022/09/29 07:57:29;;;;;;;9.13;4.90;;;;;;;12.98;100.00;99066.84;1532174;84;21336;-78
2022/09/29 07:59:57;;;;;;;11.90;3.97;;;;;;;13.07;100.00;99061.67;1534294;84;21468;-78
2022/09/29 08:02:25;;;;;;;9.43;4.60;;;;;;;13.23;100.00;99067.66;1532873;84;21402;-79
2022/09/29 08:04:50;;;;;;;6.57;4.37;;;;;;;13.40;100.00;99068.98;1522084;84;21440;-78
2022/09/29 08:07:16;;;;;;;8.80;5.73;;;;;;;13.61;100.00;99068.55;1532285;84;21328;-77
2022/09/29 08:09:43;;;;;;;10.87;4.83;;;;;;;13.81;100.00;99066.78;1531122;84;21951;-79
2022/09/29 08:12:11;;;;;;;6.77;4.03;;;;;;;13.97;99.14;99078.34;1534661;84;21373;-79
2022/09/29 08:14:38;;;;;;;9.07;4.23;;;;;;;14.09;98.32;99078.56;1510748;84;21410;-82
2022/09/29 08:17:04;;;;;;;7.43;3.87;;;;;;;14.14;97.21;99076.12;1503975;84;21505;-78
2022/09/29 08:19:30;;;;;;;9.80;4.03;;;;;;;14.20;96.62;99082.47;1539475;84;21388;-78
2022/09/29 08:21:56;;;;;;;5.30;4.13;;;;;;;14.22;96.69;99073.27;1524546;84;21453;-77
2022/09/29 08:24:24;;;;;;;6.50;4.00;;;;;;;14.26;96.57;99075.00;1523846;84;21300;-75
2022/09/29 08:26:50;;;;;;;4.70;3.77;;;;;;;14.34;96.17;99076.13;1517397;84;21410;-78
2022/09/29 08:29:16;;;;;;;7.57;4.00;;;;;;;14.39;95.96;99071.02;1524890;84;21351;-78
2022/09/29 08:31:42;;;;;;;6.60;4.03;;;;;;;14.49;95.79;99069.77;1526318;84;21590;-78
2022/09/29 08:34:09;;;;;;;10.53;3.97;;;;;;;14.61;95.59;99070.81;1527448;84;21381;-78
2022/09/29 08:36:35;;;;;;;4.37;3.37;;;;;;;14.75;95.73;99079.61;1523383;84;21507;-78
2022/09/29 08:39:02;;;;;;;4.70;3.30;;;;;;;14.90;95.50;99080.19;1523297;84;21528;-78
2022/09/29 08:41:59;;;;;;;7.73;3.30;;;;;;;15.22;95.77;99075.81;1523760;84;21544;-79
2022/09/29 08:44:43;;;;;;;7.80;4.17;;;;;;;15.58;96.39;99075.75;1526443;84;23323;-77
2022/09/29 08:47:29;;;;;;;7.80;3.17;;;;;;;15.98;95.46;99071.03;1517261;84;21781;-79
2022/09/29 08:50:34;;;;;;;9.03;3.90;;;;;;;16.27;92.49;99081.30;1520624;84;21458;-79
2022/09/29 08:53:06;;;;;;;4.00;3.60;;;;;;;16.41;90.69;99085.50;1522083;84;21875;-79
2022/09/29 08:55:40;;;;;;;8.53;4.10;;;;;;;16.71;90.64;99074.95;1520827;84;21468;-79
2022/09/29 08:58:15;;;;;;;5.63;3.30;;;;;;;17.00;90.08;99074.78;1514342;84;21615;-79
2022/09/29 09:01:02;;;;;;;6.60;3.80;;;;;;;17.26;89.01;99074.19;1515347;84;21373;-81
2022/09/29 09:03:55;;;;;;;4.57;3.63;;;;;;;17.47;87.06;99075.08;1612623;84;21315;-79
2022/09/29 09:07:01;;;;;;;3.90;3.10;;;;;;;17.55;84.81;99071.25;1577618;84;22158;-79
2022/09/29 09:09:40;;;;;;;6.80;3.13;;;;;;;17.60;85.18;99080.23;1443085;88;21270;-79
2022/09/29 09:12:24;;;;;;;7.60;3.50;;;;;;;17.60;84.54;99075.41;1444309;84;21343;-79
2022/09/29 09:15:15;;;;;;;6.00;3.27;;;;;;;17.55;84.14;99081.95;1449560;84;22114;-80
2022/09/29 09:18:13;;;;;;;4.57;3.13;;;;;;;17.48;83.40;99085.25;1497450;86;22489;-80
2022/09/29 09:21:00;;;;;;;4.00;3.57;;;;;;;17.33;82.43;99081.10;1500662;85;21375;-80
2022/09/29 09:23:35;;;;;;;6.03;3.67;;;;;;;17.18;82.13;99076.66;1505722;86;21381;-79
2022/09/29 09:26:03;;;;;;;6.13;3.57;;;;;;;17.04;82.41;99080.52;1495042;86;22673;-80
2022/09/29 09:28:40;;;;;;;7.40;3.30;;;;;;;16.97;82.88;99081.91;1518409;86;21639;-80
2022/09/29 09:31:25;;;;;;;3.50;2.87;;;;;;;16.94;83.38;99078.34;1509746;86;21905;-80
2022/09/29 09:34:21;;;;;;;15.33;3.73;;;;;;;16.95;83.75;99075.99;1497994;86;22239;-79
2022/09/29 09:36:55;;;;;;;4.40;2.73;;;;;;;16.98;83.62;99075.55;1501094;86;21569;-80
2022/09/29 09:39:50;;;;;;;9.00;3.27;;;;;;;16.99;83.39;99075.83;1510505;84;21676;-80
2022/09/29 09:42:24;;;;;;;5.67;3.70;;;;;;;17.08;83.35;99074.49;1525261;84;21395;-80
2022/09/29 09:45:20;;;;;;;7.23;3.30;;;;;;;17.27;83.21;99077.17;1519342;84;21536;-79
2022/09/29 09:47:55;;;;;;;10.87;3.90;;;;;;;17.40;83.20;99067.64;1523623;84;23943;-80
2022/09/29 09:50:24;;;;;;;4.97;4.37;;;;;;;17.47;82.68;99071.06;1524452;84;22569;-79
2022/09/29 09:53:04;;;;;;;9.27;3.63;;;;;;;17.50;82.70;99075.95;1434809;85;21530;-80
2022/09/29 09:55:35;;;;;;;5.28;3.58;;;;;;;17.54;82.31;99077.13;1607982;84;21307;-80
2022/09/29 09:58:55;;;;;;;10.90;4.60;;;;;;;17.59;81.73;99081.28;1437843;84;21400;-80
2022/09/29 10:01:21;;;;;;;16.27;4.80;;;;;;;17.62;81.52;99075.20;1421744;86;22057;-79
2022/09/29 10:03:47;;;;;;;7.43;4.43;;;;;;;17.61;81.11;99081.08;1442367;84;21255;-80
2022/09/29 10:06:13;;;;;;;6.70;4.30;;;;;;;17.58;80.68;99082.34;1446812;84;21494;-80
2022/09/29 10:08:41;;;;;;;7.08;4.60;;;;;;;17.52;81.02;99085.92;1613137;84;21270;-81
2022/09/29 10:11:26;;;;;;;6.37;3.90;;;;;;;17.56;81.13;99081.73;1439824;84;21270;-80
2022/09/29 10:14:22;;;;;;;7.37;4.40;;;;;;;17.59;81.08;99081.28;1611450;84;21248;-81
2022/09/29 10:16:56;;;;;;;7.83;4.57;;;;;;;17.71;81.37;99088.55;1439064;86;21219;-80
2022/09/29 10:19:25;;;;;;;6.17;4.45;;;;;;;17.83;80.76;99091.30;1615276;84;21351;-80
2022/09/29 10:21:51;;;;;;;7.78;4.50;;;;;;;18.07;81.36;99085.48;1583212;84;21255;-80
2022/09/29 10:24:32;;;;;;;7.12;4.22;;;;;;;18.39;80.56;99080.16;1431213;86;21475;-81
2022/09/29 10:27:00;;;;;;;15.23;4.95;;;;;;;18.83;80.65;99084.67;1549623;84;21403;-79
2022/09/29 10:29:41;;;;;;;7.62;4.10;;;;;;;19.09;76.89;99091.94;1567591;84;21561;-79
2022/09/29 10:32:17;;;;;;;6.87;4.58;;;;;;;19.25;76.27;99081.83;1616069;84;22047;-80
2022/09/29 10:34:50;;;;;;;10.85;4.92;;;;;;;19.45;76.17;99084.61;1602450;84;21359;-80
2022/09/29 10:37:37;;;;;;;10.40;4.35;;;;;;;19.73;75.89;99084.66;1614296;84;21374;-81
2022/09/29 10:40:16;;;;;;;8.18;4.10;;;;;;;19.92;74.87;99084.47;1613751;84;22137;-79
2022/09/29 10:42:45;;;;;;;6.45;4.35;;;;;;;20.08;74.36;99089.04;1609957;84;21345;-78
2022/09/29 10:45:33;;;;;;;9.68;4.83;;;;;;;20.21;74.11;99091.96;1447269;84;21263;-80
2022/09/29 10:48:10;;;;;;;12.00;4.40;;;;;;;20.34;73.38;99090.81;1476304;84;21388;-80
2022/09/29 10:50:48;;;;;;;;;;;;;;;20.32;72.99;99095.11;1614666;84;22410;-80
2022/09/29 10:53:39;;;;;;;6.65;3.77;;;;;;;20.18;72.56;99105.88;1602840;84;20859;-80
2022/09/29 10:56:19;;;;;;;6.90;4.35;;;;;;;19.96;71.78;99107.90;1617482;84;21381;-79
2022/09/29 10:59:02;;;;;;;9.90;4.87;;;;;;;19.66;72.21;99108.16;1617331;84;21397;-80
2022/09/29 11:01:31;;;;;;;10.13;5.40;;;;;;;19.32;71.94;99111.20;1608212;84;21537;-79
2022/09/29 11:04:08;;;;;;;8.05;4.30;;;;;;;18.97;72.71;99108.04;1442806;85;21292;-80
2022/09/29 11:06:37;;;;;;;7.45;4.60;;;;;;;18.79;73.77;99104.97;1442231;86;21349;-79
2022/09/29 11:09:18;;;;;;;6.40;4.07;;;;;;;18.68;75.60;99104.41;1434177;86;21233;-78
2022/09/29 11:11:56;;;;;;;10.23;4.50;;;;;;;18.62;76.76;99091.94;1442389;86;21328;-78
2022/09/29 11:14:40;;;;;;;6.53;4.53;;;;;;;18.57;77.12;99099.85;1605295;84;21314;-80
2022/09/29 11:17:32;;;;;;;8.93;4.85;;;;;;;18.42;76.82;99093.61;1608058;84;21196;-79
2022/09/29 11:20:02;;;;;;;9.53;4.35;;;;;;;18.33;77.07;99097.68;1593306;84;21440;-79
2022/09/29 11:23:00;;;;;;;9.73;4.83;;;;;;;18.30;77.43;99097.61;1439002;89;21262;-81
2022/09/29 11:25:50;;;;;;;11.08;4.67;;;;;;;18.16;78.37;99102.88;1452857;84;21299;-81
2022/09/29 11:28:21;;;;;;;7.58;4.85;;;;;;;17.94;80.02;99114.09;1465561;84;21305;-80
2022/09/29 11:31:08;;;;;;;11.57;5.30;;;;;;;17.79;81.61;99104.32;1610844;84;21337;-80
2022/09/29 11:34:08;;;;;;;6.17;4.42;;;;;;;17.69;83.28;99101.33;1562632;84;22290;-79
2022/09/29 11:37:13;;;;;;;7.65;5.25;;;;;;;17.58;84.91;99089.03;1615719;84;21159;-79
2022/09/29 11:40:03;;;;;;;11.47;4.53;;;;;;;17.48;85.69;99091.41;1443430;84;21330;-79
2022/09/29 11:42:38;;;;;;;6.50;4.42;;;;;;;17.43;87.15;99103.29;1438419;87;21285;-79
2022/09/29 11:45:09;;;;;;;6.70;4.83;;;;;;;17.28;90.83;99117.57;1615521;84;21255;-78
2022/09/29 11:48:07;;;;;;;7.40;4.90;;;;;;;17.14;90.65;99103.53;1514885;84;21270;-78
2022/09/29 11:51:17;;;;;;;10.70;6.17;;;;;;;16.98;96.04;99106.28;1600878;84;21307;-78
2022/09/29 11:54:00;;;;;;;9.63;5.42;;;;;;;16.86;95.15;99106.19;1622001;84;21190;-77
2022/09/29 11:56:38;;;;;;;8.97;6.13;;;;;;;16.90;94.74;99113.24;1620832;84;21189;-79
2022/09/29 11:59:47;;;;;;;10.70;5.87;;;;;;;16.97;94.96;99106.48;1621332;84;21558;-80
2022/09/29 12:02:37;;;;;;;8.23;6.07;;;;;;;17.08;95.61;99085.19;1531082;87;21570;-79